sensor_id;sensor_type;location;lat;lon;timestamp;pressure;altitude;pressure_sealevel;temperature;humidity
43745;BME280;29359;53.048;8.732;2023-08-31T00:00:13;100643.88;;;13.09;98.64
43745;BME280;29359;53.048;8.732;2023-08-31T00:02:17;100641.44;;;13.04;98.78
43745;BME280;29359;53.048;8.732;2023-08-31T00:04:20;100653.81;;;13.04;98.94
43745;BME280;29359;53.048;8.732;2023-08-31T00:06:23;100653.88;;;13.02;98.74
43745;BME280;29359;53.048;8.732;2023-08-31T00:08:26;100653.97;;;12.99;98.60
43745;BME280;29359;53.048;8.732;2023-08-31T00:10:29;100649.59;;;12.98;98.43
43745;BME280;29359;53.048;8.732;2023-08-31T00:12:32;100648.84;;;12.95;97.92
43745;BME280;29359;53.048;8.732;2023-08-31T00:14:35;100658.66;;;12.93;98.26
43745;BME280;29359;53.048;8.732;2023-08-31T00:16:40;100655.09;;;12.94;98.21
43745;BME280;29359;53.048;8.732;2023-08-31T00:18:44;100648.13;;;12.91;97.97
43745;BME280;29359;53.048;8.732;2023-08-31T00:20:46;100652.69;;;12.87;97.63
43745;BME280;29359;53.048;8.732;2023-08-31T00:22:49;100646.66;;;12.84;97.72
43745;BME280;29359;53.048;8.732;2023-08-31T00:24:52;100650.28;;;12.81;97.48
43745;BME280;29359;53.048;8.732;2023-08-31T00:26:54;100647.63;;;12.81;97.25
43745;BME280;29359;53.048;8.732;2023-08-31T00:28:57;100661.00;;;12.78;97.01
43745;BME280;29359;53.048;8.732;2023-08-31T00:31:00;100655.78;;;12.77;97.15
43745;BME280;29359;53.048;8.732;2023-08-31T00:33:06;100654.06;;;12.76;97.12
43745;BME280;29359;53.048;8.732;2023-08-31T00:35:10;100655.91;;;12.74;97.57
43745;BME280;29359;53.048;8.732;2023-08-31T00:37:13;100652.44;;;12.72;97.34
43745;BME280;29359;53.048;8.732;2023-08-31T00:39:15;100656.09;;;12.69;97.39
43745;BME280;29359;53.048;8.732;2023-08-31T00:41:22;100658.72;;;12.69;97.27
43745;BME280;29359;53.048;8.732;2023-08-31T00:43:25;100659.72;;;12.67;97.15
43745;BME280;29359;53.048;8.732;2023-08-31T00:45:28;100664.28;;;12.63;97.03
43745;BME280;29359;53.048;8.732;2023-08-31T00:47:31;100661.63;;;12.63;96.99
43745;BME280;29359;53.048;8.732;2023-08-31T00:49:35;100666.06;;;12.63;96.92
43745;BME280;29359;53.048;8.732;2023-08-31T00:51:38;100666.13;;;12.61;96.94
43745;BME280;29359;53.048;8.732;2023-08-31T00:53:42;100663.53;;;12.60;96.72
43745;BME280;29359;53.048;8.732;2023-08-31T00:55:45;100669.78;;;12.57;97.02
43745;BME280;29359;53.048;8.732;2023-08-31T00:57:48;100669.84;;;12.55;96.64
43745;BME280;29359;53.048;8.732;2023-08-31T00:59:50;100665.53;;;12.53;96.57
43745;BME280;29359;53.048;8.732;2023-08-31T01:02:01;100668.25;;;12.51;96.62
43745;BME280;29359;53.048;8.732;2023-08-31T01:04:15;100673.59;;;12.50;96.52
43745;BME280;29359;53.048;8.732;2023-08-31T01:06:38;100672.72;;;12.49;96.71
43745;BME280;29359;53.048;8.732;2023-08-31T01:08:49;100669.16;;;12.50;96.62
43745;BME280;29359;53.048;8.732;2023-08-31T01:11:01;100684.31;;;12.47;96.59
43745;BME280;29359;53.048;8.732;2023-08-31T01:13:10;100670.38;;;12.42;96.32
43745;BME280;29359;53.048;8.732;2023-08-31T01:15:16;100670.56;;;12.37;96.32
43745;BME280;29359;53.048;8.732;2023-08-31T01:17:22;100673.25;;;12.36;96.38
43745;BME280;29359;53.048;8.732;2023-08-31T01:19:39;100679.59;;;12.32;96.23
43745;BME280;29359;53.048;8.732;2023-08-31T01:21:48;100676.25;;;12.26;96.34
43745;BME280;29359;53.048;8.732;2023-08-31T01:23:55;100671.94;;;12.24;96.17
43745;BME280;29359;53.048;8.732;2023-08-31T01:25:59;100670.28;;;12.21;96.10
43745;BME280;29359;53.048;8.732;2023-08-31T01:28:02;100673.03;;;12.18;95.89
43745;BME280;29359;53.048;8.732;2023-08-31T01:30:06;100673.97;;;12.17;96.13
43745;BME280;29359;53.048;8.732;2023-08-31T01:32:09;100674.88;;;12.16;96.12
43745;BME280;29359;53.048;8.732;2023-08-31T01:34:12;100666.16;;;12.14;96.00
43745;BME280;29359;53.048;8.732;2023-08-31T01:36:18;100664.38;;;12.13;96.67
43745;BME280;29359;53.048;8.732;2023-08-31T01:38:27;100658.28;;;12.11;96.83
43745;BME280;29359;53.048;8.732;2023-08-31T01:40:35;100663.56;;;12.11;97.12
43745;BME280;29359;53.048;8.732;2023-08-31T01:42:41;100666.22;;;12.11;97.20
43745;BME280;29359;53.048;8.732;2023-08-31T01:44:45;100665.38;;;12.11;97.51
43745;BME280;29359;53.048;8.732;2023-08-31T01:46:52;100666.28;;;12.10;97.63
43745;BME280;29359;53.048;8.732;2023-08-31T01:48:55;100666.34;;;12.08;97.46
43745;BME280;29359;53.048;8.732;2023-08-31T01:50:59;100665.47;;;12.08;97.59
43745;BME280;29359;53.048;8.732;2023-08-31T01:53:02;100669.03;;;12.07;97.96
43745;BME280;29359;53.048;8.732;2023-08-31T01:55:06;100669.03;;;12.07;97.71
43745;BME280;29359;53.048;8.732;2023-08-31T01:57:10;100670.94;;;12.03;97.82
43745;BME280;29359;53.048;8.732;2023-08-31T01:59:13;100667.44;;;12.03;97.91
43745;BME280;29359;53.048;8.732;2023-08-31T02:01:16;100665.72;;;12.02;98.17
43745;BME280;29359;53.048;8.732;2023-08-31T02:03:19;100673.69;;;12.00;98.41
43745;BME280;29359;53.048;8.732;2023-08-31T02:05:22;100677.25;;;11.99;98.89
43745;BME280;29359;53.048;8.732;2023-08-31T02:07:25;100675.53;;;11.98;98.65
43745;BME280;29359;53.048;8.732;2023-08-31T02:09:28;100679.09;;;11.97;98.84
43745;BME280;29359;53.048;8.732;2023-08-31T02:11:31;100682.63;;;11.98;98.79
43745;BME280;29359;53.048;8.732;2023-08-31T02:13:38;100677.25;;;11.99;98.55
43745;BME280;29359;53.048;8.732;2023-08-31T02:15:41;100682.63;;;11.98;99.08
43745;BME280;29359;53.048;8.732;2023-08-31T02:17:43;100677.38;;;11.96;98.47
43745;BME280;29359;53.048;8.732;2023-08-31T02:19:46;100678.34;;;11.93;98.84
43745;BME280;29359;53.048;8.732;2023-08-31T02:21:49;100675.75;;;11.92;98.81
43745;BME280;29359;53.048;8.732;2023-08-31T02:23:52;100681.13;;;11.90;98.96
43745;BME280;29359;53.048;8.732;2023-08-31T02:25:55;100675.88;;;11.89;98.67
43745;BME280;29359;53.048;8.732;2023-08-31T02:27:56;100681.28;;;11.86;98.70
43745;BME280;29359;53.048;8.732;2023-08-31T02:30:01;100678.63;;;11.86;98.99
43745;BME280;29359;53.048;8.732;2023-08-31T02:32:07;100683.97;;;11.84;98.96
43745;BME280;29359;53.048;8.732;2023-08-31T02:34:10;100687.72;;;11.79;98.85
43745;BME280;29359;53.048;8.732;2023-08-31T02:36:13;100680.78;;;11.75;98.93
43745;BME280;29359;53.048;8.732;2023-08-31T02:38:16;100678.19;;;11.73;99.24
43745;BME280;29359;53.048;8.732;2023-08-31T02:40:19;100676.41;;;11.74;99.34
43745;BME280;29359;53.048;8.732;2023-08-31T02:42:22;100677.31;;;11.73;99.62
43745;BME280;29359;53.048;8.732;2023-08-31T02:44:25;100678.19;;;11.73;99.72
43745;BME280;29359;53.048;8.732;2023-08-31T02:46:29;100677.31;;;11.73;99.82
43745;BME280;29359;53.048;8.732;2023-08-31T02:48:33;100683.53;;;11.72;99.83
43745;BME280;29359;53.048;8.732;2023-08-31T02:50:36;100679.19;;;11.69;99.64
43745;BME280;29359;53.048;8.732;2023-08-31T02:52:40;100686.19;;;11.70;100.00
43745;BME280;29359;53.048;8.732;2023-08-31T02:54:43;100690.63;;;11.70;99.97
43745;BME280;29359;53.048;8.732;2023-08-31T02:56:45;100695.09;;;11.68;99.98
43745;BME280;29359;53.048;8.732;2023-08-31T02:58:48;100688.09;;;11.67;100.00
43745;BME280;29359;53.048;8.732;2023-08-31T03:00:50;100683.72;;;11.65;99.98
43745;BME280;29359;53.048;8.732;2023-08-31T03:02:54;100693.44;;;11.65;100.00
43745;BME280;29359;53.048;8.732;2023-08-31T03:04:57;100686.41;;;11.64;100.00
43745;BME280;29359;53.048;8.732;2023-08-31T03:07:00;100686.47;;;11.62;99.90
43745;BME280;29359;53.048;8.732;2023-08-31T03:09:05;100686.56;;;11.59;100.00
43745;BME280;29359;53.048;8.732;2023-08-31T03:11:07;100691.00;;;11.59;99.90
43745;BME280;29359;53.048;8.732;2023-08-31T03:13:10;100691.06;;;11.57;100.00
43745;BME280;29359;53.048;8.732;2023-08-31T03:15:14;100698.13;;;11.57;100.00
43745;BME280;29359;53.048;8.732;2023-08-31T03:17:16;100694.66;;;11.55;100.00
43745;BME280;29359;53.048;8.732;2023-08-31T03:19:21;100698.13;;;11.57;99.94
43745;BME280;29359;53.048;8.732;2023-08-31T03:21:23;100699.84;;;11.58;99.97
43745;BME280;29359;53.048;8.732;2023-08-31T03:23:28;100708.75;;;11.55;100.00
43745;BME280;29359;53.048;8.732;2023-08-31T03:25:31;100706.09;;;11.55;100.00
43745;BME280;29359;53.048;8.732;2023-08-31T03:27:34;100696.44;;;11.54;100.00
43745;BME280;29359;53.048;8.732;2023-08-31T03:29:37;100705.28;;;11.53;100.00
43745;BME280;29359;53.048;8.732;2023-08-31T03:31:39;100707.06;;;11.53;100.00
43745;BME280;29359;53.048;8.732;2023-08-31T03:33:42;100714.19;;;11.51;100.00
43745;BME280;29359;53.048;8.732;2023-08-31T03:35:46;100703.63;;;11.51;100.00
43745;BME280;29359;53.048;8.732;2023-08-31T03:37:48;100710.69;;;11.50;100.00
43745;BME280;29359;53.048;8.732;2023-08-31T03:39:50;100713.34;;;11.50;99.65
43745;BME280;29359;53.048;8.732;2023-08-31T03:41:53;100705.44;;;11.49;99.72
43745;BME280;29359;53.048;8.732;2023-08-31T03:43:56;100708.16;;;11.47;99.64
43745;BME280;29359;53.048;8.732;2023-08-31T03:45:59;100705.50;;;11.47;99.57
43745;BME280;29359;53.048;8.732;2023-08-31T03:48:03;100712.53;;;11.48;99.80
43745;BME280;29359;53.048;8.732;2023-08-31T03:50:06;100702.00;;;11.47;99.84
43745;BME280;29359;53.048;8.732;2023-08-31T03:52:11;100707.28;;;11.47;99.71
43745;BME280;29359;53.048;8.732;2023-08-31T03:54:13;100709.97;;;11.45;99.62
43745;BME280;29359;53.048;8.732;2023-08-31T03:56:16;100714.34;;;11.46;99.96
43745;BME280;29359;53.048;8.732;2023-08-31T03:58:19;100718.78;;;11.46;99.87
43745;BME280;29359;53.048;8.732;2023-08-31T04:00:22;100715.22;;;11.47;100.00
43745;BME280;29359;53.048;8.732;2023-08-31T04:02:25;100719.63;;;11.46;100.00
43745;BME280;29359;53.048;8.732;2023-08-31T04:04:28;100720.56;;;11.45;100.00
43745;BME280;29359;53.048;8.732;2023-08-31T04:06:31;100712.69;;;11.44;100.00
43745;BME280;29359;53.048;8.732;2023-08-31T04:08:35;100714.41;;;11.45;100.00
43745;BME280;29359;53.048;8.732;2023-08-31T04:10:38;100715.28;;;11.45;100.00
43745;BME280;29359;53.048;8.732;2023-08-31T04:12:40;100721.47;;;11.44;100.00
43745;BME280;29359;53.048;8.732;2023-08-31T04:14:44;100718.88;;;11.43;100.00
43745;BME280;29359;53.048;8.732;2023-08-31T04:16:47;100714.47;;;11.43;100.00
43745;BME280;29359;53.048;8.732;2023-08-31T04:18:51;100725.91;;;11.44;100.00
43745;BME280;29359;53.048;8.732;2023-08-31T04:20:54;100723.31;;;11.42;100.00
43745;BME280;29359;53.048;8.732;2023-08-31T04:22:56;100721.53;;;11.43;100.00
43745;BME280;29359;53.048;8.732;2023-08-31T04:25:01;100724.22;;;11.41;100.00
43745;BME280;29359;53.048;8.732;2023-08-31T04:27:05;100723.31;;;11.42;100.00
43745;BME280;29359;53.048;8.732;2023-08-31T04:29:07;100723.31;;;11.42;100.00
43745;BME280;29359;53.048;8.732;2023-08-31T04:31:10;100733.00;;;11.42;100.00
43745;BME280;29359;53.048;8.732;2023-08-31T04:33:13;100730.31;;;11.43;100.00
43745;BME280;29359;53.048;8.732;2023-08-31T04:35:17;100730.31;;;11.43;100.00
43745;BME280;29359;53.048;8.732;2023-08-31T04:37:19;100735.59;;;11.43;100.00
43745;BME280;29359;53.048;8.732;2023-08-31T04:39:23;100739.16;;;11.42;100.00
43745;BME280;29359;53.048;8.732;2023-08-31T04:41:27;100743.59;;;11.42;100.00
43745;BME280;29359;53.048;8.732;2023-08-31T04:43:30;100740.94;;;11.42;100.00
43745;BME280;29359;53.048;8.732;2023-08-31T04:45:33;100737.38;;;11.43;100.00
43745;BME280;29359;53.048;8.732;2023-08-31T04:47:36;100740.03;;;11.43;100.00
43745;BME280;29359;53.048;8.732;2023-08-31T04:49:39;100735.59;;;11.43;100.00
43745;BME280;29359;53.048;8.732;2023-08-31T04:51:44;100739.13;;;11.44;100.00
43745;BME280;29359;53.048;8.732;2023-08-31T04:53:47;100745.22;;;11.46;100.00
43745;BME280;29359;53.048;8.732;2023-08-31T04:55:49;100743.38;;;11.48;100.00
43745;BME280;29359;53.048;8.732;2023-08-31T04:57:54;100750.41;;;11.49;100.00
43745;BME280;29359;53.048;8.732;2023-08-31T04:59:59;100737.06;;;11.52;100.00
43745;BME280;29359;53.048;8.732;2023-08-31T05:02:02;100743.97;;;11.56;100.00
43745;BME280;29359;53.048;8.732;2023-08-31T05:04:05;100740.38;;;11.58;100.00
43745;BME280;29359;53.048;8.732;2023-08-31T05:06:08;100747.28;;;11.62;100.00
43745;BME280;29359;53.048;8.732;2023-08-31T05:08:10;100747.13;;;11.67;100.00
43745;BME280;29359;53.048;8.732;2023-08-31T05:10:13;100747.91;;;11.71;100.00
43745;BME280;29359;53.048;8.732;2023-08-31T05:12:16;100745.09;;;11.75;100.00
43745;BME280;29359;53.048;8.732;2023-08-31T05:14:21;100745.91;;;11.79;100.00
43745;BME280;29359;53.048;8.732;2023-08-31T05:16:24;100751.09;;;11.82;100.00
43745;BME280;29359;53.048;8.732;2023-08-31T05:18:27;100747.53;;;11.83;100.00
43745;BME280;29359;53.048;8.732;2023-08-31T05:20:29;100746.66;;;11.82;100.00
43745;BME280;29359;53.048;8.732;2023-08-31T05:22:32;100754.47;;;11.85;100.00
43745;BME280;29359;53.048;8.732;2023-08-31T05:24:34;100755.34;;;11.86;100.00
43745;BME280;29359;53.048;8.732;2023-08-31T05:26:38;100756.16;;;11.88;100.00
43745;BME280;29359;53.048;8.732;2023-08-31T05:28:41;100754.38;;;11.88;100.00
43745;BME280;29359;53.048;8.732;2023-08-31T05:30:49;100757.94;;;11.87;100.00
43745;BME280;29359;53.048;8.732;2023-08-31T05:32:52;100760.53;;;11.89;100.00
43745;BME280;29359;53.048;8.732;2023-08-31T05:34:55;100755.25;;;11.89;100.00
43745;BME280;29359;53.048;8.732;2023-08-31T05:36:59;100764.03;;;11.89;100.00
43745;BME280;29359;53.048;8.732;2023-08-31T05:39:02;100761.34;;;11.91;100.00
43745;BME280;29359;53.048;8.732;2023-08-31T05:41:06;100762.22;;;11.91;100.00
43745;BME280;29359;53.048;8.732;2023-08-31T05:43:09;100762.16;;;11.93;100.00
43745;BME280;29359;53.048;8.732;2023-08-31T05:45:12;100764.69;;;11.96;100.00
43745;BME280;29359;53.048;8.732;2023-08-31T05:47:18;100767.22;;;11.99;100.00
43745;BME280;29359;53.048;8.732;2023-08-31T05:49:20;100765.44;;;12.00;100.00
43745;BME280;29359;53.048;8.732;2023-08-31T05:51:23;100767.22;;;11.99;100.00
43745;BME280;29359;53.048;8.732;2023-08-31T05:53:26;100763.59;;;12.02;100.00
43745;BME280;29359;53.048;8.732;2023-08-31T05:55:28;100764.47;;;12.02;100.00
43745;BME280;29359;53.048;8.732;2023-08-31T05:57:31;100767.91;;;12.04;100.00
43745;BME280;29359;53.048;8.732;2023-08-31T05:59:34;100767.00;;;12.05;100.00
43745;BME280;29359;53.048;8.732;2023-08-31T06:01:37;100774.88;;;12.07;100.00
43745;BME280;29359;53.048;8.732;2023-08-31T06:03:41;100774.84;;;12.08;100.00
43745;BME280;29359;53.048;8.732;2023-08-31T06:05:44;100777.38;;;12.11;100.00
43745;BME280;29359;53.048;8.732;2023-08-31T06:07:47;100775.50;;;12.15;100.00
43745;BME280;29359;53.048;8.732;2023-08-31T06:09:49;100782.41;;;12.19;100.00
43745;BME280;29359;53.048;8.732;2023-08-31T06:11:51;100784.09;;;12.21;100.00
43745;BME280;29359;53.048;8.732;2023-08-31T06:13:54;100776.91;;;12.25;100.00
43745;BME280;29359;53.048;8.732;2023-08-31T06:15:57;100776.84;;;12.26;100.00
43745;BME280;29359;53.048;8.732;2023-08-31T06:18:01;100786.41;;;12.31;100.00
43745;BME280;29359;53.048;8.732;2023-08-31T06:20:07;100776.63;;;12.33;100.00
43745;BME280;29359;53.048;8.732;2023-08-31T06:22:10;100779.22;;;12.34;100.00
43745;BME280;29359;53.048;8.732;2023-08-31T06:24:13;100780.03;;;12.36;100.00
43745;BME280;29359;53.048;8.732;2023-08-31T06:26:16;100791.41;;;12.38;100.00
43745;BME280;29359;53.048;8.732;2023-08-31T06:28:19;100788.59;;;12.43;100.00
43745;BME280;29359;53.048;8.732;2023-08-31T06:30:21;100795.41;;;12.50;100.00
43745;BME280;29359;53.048;8.732;2023-08-31T06:32:23;100789.00;;;12.55;100.00
43745;BME280;29359;53.048;8.732;2023-08-31T06:34:26;100788.75;;;12.63;100.00
43745;BME280;29359;53.048;8.732;2023-08-31T06:36:29;100787.59;;;12.70;100.00
43745;BME280;29359;53.048;8.732;2023-08-31T06:38:32;100792.59;;;12.78;100.00
43745;BME280;29359;53.048;8.732;2023-08-31T06:40:36;100791.44;;;12.85;100.00
43745;BME280;29359;53.048;8.732;2023-08-31T06:42:39;100797.38;;;12.92;100.00
43745;BME280;29359;53.048;8.732;2023-08-31T06:44:42;100795.47;;;12.95;100.00
43745;BME280;29359;53.048;8.732;2023-08-31T06:46:45;100793.56;;;12.99;99.75
43745;BME280;29359;53.048;8.732;2023-08-31T06:48:48;100789.09;;;13.01;99.80
43745;BME280;29359;53.048;8.732;2023-08-31T06:50:51;100789.84;;;13.04;99.10
43745;BME280;29359;53.048;8.732;2023-08-31T06:52:55;100794.09;;;13.08;98.75
43745;BME280;29359;53.048;8.732;2023-08-31T06:54:58;100787.75;;;13.12;98.83
43745;BME280;29359;53.048;8.732;2023-08-31T06:57:01;100793.00;;;13.14;98.62
43745;BME280;29359;53.048;8.732;2023-08-31T06:59:04;100797.38;;;13.15;97.59
43745;BME280;29359;53.048;8.732;2023-08-31T07:01:07;100794.72;;;13.15;97.58
43745;BME280;29359;53.048;8.732;2023-08-31T07:03:10;100805.31;;;13.15;97.01
43745;BME280;29359;53.048;8.732;2023-08-31T07:05:13;100800.94;;;13.14;97.17
43745;BME280;29359;53.048;8.732;2023-08-31T07:07:16;100800.88;;;13.15;96.86
43745;BME280;29359;53.048;8.732;2023-08-31T07:09:19;100804.38;;;13.16;97.17
43745;BME280;29359;53.048;8.732;2023-08-31T07:11:22;100810.63;;;13.15;96.95
43745;BME280;29359;53.048;8.732;2023-08-31T07:13:25;100810.63;;;13.15;96.95
43745;BME280;29359;53.048;8.732;2023-08-31T07:15:28;100812.47;;;13.13;97.59
43745;BME280;29359;53.048;8.732;2023-08-31T07:17:33;100814.19;;;13.14;97.37
43745;BME280;29359;53.048;8.732;2023-08-31T07:19:36;100817.78;;;13.13;97.43
43745;BME280;29359;53.048;8.732;2023-08-31T07:21:39;100808.16;;;13.10;97.74
43745;BME280;29359;53.048;8.732;2023-08-31T07:23:42;100810.78;;;13.10;97.43
43745;BME280;29359;53.048;8.732;2023-08-31T07:25:46;100808.09;;;13.12;97.92
43745;BME280;29359;53.048;8.732;2023-08-31T07:27:49;100812.34;;;13.16;97.93
43745;BME280;29359;53.048;8.732;2023-08-31T07:29:54;100811.41;;;13.18;97.98
43745;BME280;29359;53.048;8.732;2023-08-31T07:31:56;100811.41;;;13.18;98.21
43745;BME280;29359;53.048;8.732;2023-08-31T07:33:59;100810.41;;;13.21;98.09
43745;BME280;29359;53.048;8.732;2023-08-31T07:36:02;100817.31;;;13.25;98.44
43745;BME280;29359;53.048;8.732;2023-08-31T07:38:06;100808.31;;;13.29;98.80
43745;BME280;29359;53.048;8.732;2023-08-31T07:40:10;100811.72;;;13.33;98.62
43745;BME280;29359;53.048;8.732;2023-08-31T07:42:15;100817.69;;;13.38;99.01
43745;BME280;29359;53.048;8.732;2023-08-31T07:44:17;100814.84;;;13.42;98.55
43745;BME280;29359;53.048;8.732;2023-08-31T07:46:20;100813.75;;;13.48;98.44
43745;BME280;29359;53.048;8.732;2023-08-31T07:48:23;100814.38;;;13.55;98.90
43745;BME280;29359;53.048;8.732;2023-08-31T07:50:26;100818.50;;;13.62;98.29
43745;BME280;29359;53.048;8.732;2023-08-31T07:52:29;100818.13;;;13.71;98.34
43745;BME280;29359;53.048;8.732;2023-08-31T07:54:32;100811.50;;;13.81;98.74
43745;BME280;29359;53.048;8.732;2023-08-31T07:56:35;100820.03;;;13.89;98.38
43745;BME280;29359;53.048;8.732;2023-08-31T07:58:39;100821.50;;;13.96;97.80
43745;BME280;29359;53.048;8.732;2023-08-31T08:00:42;100821.38;;;13.99;97.31
43745;BME280;29359;53.048;8.732;2023-08-31T08:02:45;100820.56;;;13.97;95.95
43745;BME280;29359;53.048;8.732;2023-08-31T08:04:48;100825.94;;;13.96;95.45
43745;BME280;29359;53.048;8.732;2023-08-31T08:06:51;100832.25;;;13.93;95.38
43745;BME280;29359;53.048;8.732;2023-08-31T08:08:54;100836.81;;;13.90;95.23
43745;BME280;29359;53.048;8.732;2023-08-31T08:10:56;100835.25;;;13.84;94.93
43745;BME280;29359;53.048;8.732;2023-08-31T08:13:01;100839.88;;;13.79;94.48
43745;BME280;29359;53.048;8.732;2023-08-31T08:15:05;100845.31;;;13.76;94.56
43745;BME280;29359;53.048;8.732;2023-08-31T08:17:09;100835.69;;;13.73;94.32
43745;BME280;29359;53.048;8.732;2023-08-31T08:19:12;100844.78;;;13.68;94.48
43745;BME280;29359;53.048;8.732;2023-08-31T08:21:14;100836.81;;;13.68;94.71
43745;BME280;29359;53.048;8.732;2023-08-31T08:23:16;100843.78;;;13.70;94.97
43745;BME280;29359;53.048;8.732;2023-08-31T08:25:19;100845.44;;;13.73;95.22
43745;BME280;29359;53.048;8.732;2023-08-31T08:27:22;100842.75;;;13.74;94.59
43745;BME280;29359;53.048;8.732;2023-08-31T08:29:25;100851.44;;;13.78;95.22
43745;BME280;29359;53.048;8.732;2023-08-31T08:31:29;100840.75;;;13.79;95.00
43745;BME280;29359;53.048;8.732;2023-08-31T08:33:32;100844.28;;;13.80;95.28
43745;BME280;29359;53.048;8.732;2023-08-31T08:35:37;100853.16;;;13.79;94.77
43745;BME280;29359;53.048;8.732;2023-08-31T08:37:40;100846.84;;;13.81;94.95
43745;BME280;29359;53.048;8.732;2023-08-31T08:39:42;100853.88;;;13.82;95.21
43745;BME280;29359;53.048;8.732;2023-08-31T08:41:45;100848.47;;;13.86;95.16
43745;BME280;29359;53.048;8.732;2023-08-31T08:43:51;100852.75;;;13.90;94.70
43745;BME280;29359;53.048;8.732;2023-08-31T08:45:54;100855.34;;;13.91;95.26
43745;BME280;29359;53.048;8.732;2023-08-31T08:47:59;100853.41;;;13.95;95.18
43745;BME280;29359;53.048;8.732;2023-08-31T08:50:05;100853.22;;;13.99;95.02
43745;BME280;29359;53.048;8.732;2023-08-31T08:52:09;100854.75;;;14.05;95.14
43745;BME280;29359;53.048;8.732;2023-08-31T08:54:12;100856.22;;;14.12;95.07
43745;BME280;29359;53.048;8.732;2023-08-31T08:56:15;100859.53;;;14.17;94.78
43745;BME280;29359;53.048;8.732;2023-08-31T08:58:19;100863.84;;;14.20;94.50
43745;BME280;29359;53.048;8.732;2023-08-31T09:00:22;100867.22;;;14.23;94.35
43745;BME280;29359;53.048;8.732;2023-08-31T09:02:24;100868.97;;;14.24;94.07
43745;BME280;29359;53.048;8.732;2023-08-31T09:04:30;100876.84;;;14.26;93.86
43745;BME280;29359;53.048;8.732;2023-08-31T09:06:33;100877.59;;;14.29;94.15
43745;BME280;29359;53.048;8.732;2023-08-31T09:08:40;100883.66;;;14.33;93.35
43745;BME280;29359;53.048;8.732;2023-08-31T09:10:44;100881.81;;;14.35;92.73
43745;BME280;29359;53.048;8.732;2023-08-31T09:12:46;100884.16;;;14.42;92.45
43745;BME280;29359;53.048;8.732;2023-08-31T09:14:59;100886.75;;;14.44;91.84
43745;BME280;29359;53.048;8.732;2023-08-31T09:17:03;100896.50;;;14.43;92.08
43745;BME280;29359;53.048;8.732;2023-08-31T09:19:18;100891.94;;;14.47;91.94
43745;BME280;29359;53.048;8.732;2023-08-31T09:21:23;100886.34;;;14.53;92.59
43745;BME280;29359;53.048;8.732;2023-08-31T09:23:37;100888.66;;;14.61;92.14
43745;BME280;29359;53.048;8.732;2023-08-31T09:25:44;100890.13;;;14.68;91.53
43745;BME280;29359;53.048;8.732;2023-08-31T09:27:46;100896.06;;;14.74;90.95
43745;BME280;29359;53.048;8.732;2023-08-31T09:29:49;100888.59;;;14.83;90.68
43745;BME280;29359;53.048;8.732;2023-08-31T09:31:50;100888.03;;;14.95;90.86
43745;BME280;29359;53.048;8.732;2023-08-31T09:33:53;100883.66;;;15.13;90.48
43745;BME280;29359;53.048;8.732;2023-08-31T09:35:57;100889.16;;;15.28;90.00
43745;BME280;29359;53.048;8.732;2023-08-31T09:38:07;100881.69;;;15.36;87.79
43745;BME280;29359;53.048;8.732;2023-08-31T09:40:14;100890.94;;;15.47;87.24
43745;BME280;29359;53.048;8.732;2023-08-31T09:42:17;100885.31;;;15.53;86.87
43745;BME280;29359;53.048;8.732;2023-08-31T09:44:20;100885.94;;;15.59;86.08
43745;BME280;29359;53.048;8.732;2023-08-31T09:46:23;100887.59;;;15.62;84.67
43745;BME280;29359;53.048;8.732;2023-08-31T09:48:26;100884.00;;;15.63;83.61
43745;BME280;29359;53.048;8.732;2023-08-31T09:50:30;100882.13;;;15.65;83.13
43745;BME280;29359;53.048;8.732;2023-08-31T09:52:34;100880.25;;;15.67;82.38
43745;BME280;29359;53.048;8.732;2023-08-31T09:54:39;100875.50;;;15.74;83.21
43745;BME280;29359;53.048;8.732;2023-08-31T09:56:44;100872.63;;;15.78;82.65
43745;BME280;29359;53.048;8.732;2023-08-31T09:58:47;100876.63;;;15.87;82.70
43745;BME280;29359;53.048;8.732;2023-08-31T10:00:52;100870.03;;;15.94;82.06
43745;BME280;29359;53.048;8.732;2023-08-31T10:02:58;100866.91;;;16.03;81.62
43745;BME280;29359;53.048;8.732;2023-08-31T10:05:03;100870.31;;;16.07;80.35
43745;BME280;29359;53.048;8.732;2023-08-31T10:07:07;100871.81;;;16.12;79.85
43745;BME280;29359;53.048;8.732;2023-08-31T10:09:13;100870.72;;;16.16;79.65
43745;BME280;29359;53.048;8.732;2023-08-31T10:11:18;100875.09;;;16.17;78.01
43745;BME280;29359;53.048;8.732;2023-08-31T10:13:21;100868.13;;;16.15;77.19
43745;BME280;29359;53.048;8.732;2023-08-31T10:15:26;100870.72;;;16.16;77.33
43745;BME280;29359;53.048;8.732;2023-08-31T10:17:34;100874.94;;;16.20;77.54
43745;BME280;29359;53.048;8.732;2023-08-31T10:19:38;100873.94;;;16.23;75.02
43745;BME280;29359;53.048;8.732;2023-08-31T10:21:41;100870.94;;;16.29;74.70
43745;BME280;29359;53.048;8.732;2023-08-31T10:23:46;100873.06;;;16.40;75.59
43745;BME280;29359;53.048;8.732;2023-08-31T10:26:03;100863.34;;;16.56;76.08
43745;BME280;29359;53.048;8.732;2023-08-31T10:28:18;100866.25;;;16.69;75.37
43745;BME280;29359;53.048;8.732;2023-08-31T10:30:25;100864.81;;;16.79;74.14
43745;BME280;29359;53.048;8.732;2023-08-31T10:32:28;100865.09;;;16.90;73.26
43745;BME280;29359;53.048;8.732;2023-08-31T10:34:35;100874.00;;;17.06;72.78
43745;BME280;29359;53.048;8.732;2023-08-31T10:36:40;100873.94;;;17.23;71.49
43745;BME280;29359;53.048;8.732;2023-08-31T10:38:47;100880.34;;;17.37;68.68
43745;BME280;29359;53.048;8.732;2023-08-31T10:41:19;100877.25;;;17.44;67.86
43745;BME280;29359;53.048;8.732;2023-08-31T10:43:24;100880.19;;;17.40;67.95
43745;BME280;29359;53.048;8.732;2023-08-31T10:45:43;100876.28;;;17.30;69.00